createdAt,value
2017-11-21T00:02:00.959Z,97.64
2017-11-21T00:04:28.352Z,97.28
2017-11-21T00:06:55.749Z,97.43
2017-11-21T00:09:23.171Z,98.05
2017-11-21T00:11:50.571Z,97.56
2017-11-21T00:14:17.964Z,97.42
2017-11-21T00:16:45.368Z,97.47
2017-11-21T00:19:12.761Z,97.23
2017-11-21T00:21:40.150Z,97.31
2017-11-21T00:24:07.563Z,97.25
2017-11-21T00:26:34.979Z,97.11
2017-11-21T00:29:02.372Z,97.11
2017-11-21T00:31:29.793Z,97.05
2017-11-21T00:33:57.188Z,97.06
2017-11-21T00:36:24.579Z,97.48
2017-11-21T00:38:51.991Z,97.63
2017-11-21T00:41:19.384Z,97.23
2017-11-21T00:43:46.775Z,97.38
2017-11-21T00:46:14.190Z,97.04
2017-11-21T00:48:41.582Z,97.28
2017-11-21T00:51:08.977Z,97.10
2017-11-21T00:53:36.411Z,97.17
2017-11-21T00:56:03.811Z,97.74
2017-11-21T00:58:31.228Z,97.78
2017-11-21T01:00:58.635Z,98.12
2017-11-21T01:03:26.039Z,98.33
2017-11-21T01:05:53.443Z,98.12
2017-11-21T01:08:20.864Z,98.48
2017-11-21T01:10:48.258Z,98.81
2017-11-21T01:13:15.651Z,98.35
2017-11-21T01:15:43.072Z,98.27
2017-11-21T01:18:10.491Z,98.30
2017-11-21T01:20:37.886Z,98.37
2017-11-21T01:23:05.318Z,98.07
2017-11-21T01:25:32.716Z,97.91
2017-11-21T01:28:00.111Z,97.41
2017-11-21T01:30:27.528Z,97.27
2017-11-21T01:32:54.931Z,97.33
2017-11-21T01:35:22.343Z,97.84
2017-11-21T01:37:49.747Z,97.60
2017-11-21T01:40:17.150Z,97.50
2017-11-21T01:42:44.587Z,97.38
2017-11-21T01:45:12.012Z,97.48
2017-11-21T01:47:39.403Z,97.48
2017-11-21T01:50:06.803Z,97.26
2017-11-21T01:52:34.207Z,97.70
2017-11-21T01:55:01.603Z,97.35
2017-11-21T01:57:29.000Z,97.64
2017-11-21T01:59:56.433Z,97.96
2017-11-21T02:02:23.843Z,97.66
2017-11-21T02:04:51.567Z,97.77
2017-11-21T02:07:18.987Z,97.63
2017-11-21T02:09:46.400Z,97.60
2017-11-21T02:12:13.800Z,98.00
2017-11-21T02:14:41.228Z,97.66
2017-11-21T02:17:08.643Z,97.41
2017-11-21T02:19:36.029Z,97.23
2017-11-21T02:22:03.448Z,97.09
2017-11-21T02:24:30.863Z,97.12
2017-11-21T02:26:58.252Z,98.40
2017-11-21T02:29:25.655Z,97.98
2017-11-21T02:31:53.051Z,97.86
2017-11-21T02:34:20.699Z,98.01
2017-11-21T02:36:48.124Z,97.87
2017-11-21T02:39:15.624Z,97.83
2017-11-21T02:41:43.020Z,98.23
2017-11-21T02:44:10.433Z,98.70
2017-11-21T02:46:37.869Z,98.46
2017-11-21T02:49:05.256Z,98.48
2017-11-21T02:51:32.663Z,98.75
2017-11-21T02:54:00.088Z,98.52
2017-11-21T02:56:27.492Z,98.87
2017-11-21T02:58:54.921Z,98.55
2017-11-21T03:01:22.323Z,98.37
2017-11-21T03:03:49.707Z,98.39
2017-11-21T03:06:17.126Z,98.11
2017-11-21T03:08:44.546Z,98.27
2017-11-21T03:11:11.979Z,98.86
2017-11-21T03:13:39.402Z,98.37
2017-11-21T03:16:06.818Z,98.51
2017-11-21T03:18:34.225Z,98.74
2017-11-21T03:21:13.316Z,98.67
2017-11-21T03:23:52.443Z,98.11
2017-11-21T03:26:22.702Z,98.02
2017-11-21T03:28:50.095Z,97.92
2017-11-21T03:31:17.489Z,97.78
2017-11-21T03:33:44.915Z,97.89
2017-11-21T03:36:12.307Z,97.79
2017-11-21T03:38:39.707Z,98.15
2017-11-21T03:41:07.131Z,98.00
2017-11-21T03:43:34.529Z,97.61
2017-11-21T03:46:01.923Z,98.27
2017-11-21T03:48:29.380Z,97.92
2017-11-21T03:50:56.789Z,98.05
2017-11-21T03:53:24.179Z,98.03
2017-11-21T03:55:51.624Z,97.63
2017-11-21T03:58:19.047Z,97.39
2017-11-21T04:00:54.034Z,97.13
2017-11-21T04:03:21.508Z,96.97
2017-11-21T04:05:48.902Z,97.54
2017-11-21T04:08:16.327Z,97.59
2017-11-21T04:10:43.722Z,97.56
2017-11-21T04:13:11.128Z,97.23
2017-11-21T04:15:38.543Z,98.19
2017-11-21T04:18:05.939Z,97.83
2017-11-21T04:20:33.644Z,97.45
2017-11-21T04:23:01.100Z,97.22
2017-11-21T04:25:28.493Z,97.16
2017-11-21T04:27:55.895Z,97.42
2017-11-21T04:30:23.301Z,97.34
2017-11-21T04:32:50.706Z,97.20
2017-11-21T04:35:18.108Z,97.08
2017-11-21T04:37:45.529Z,96.86
2017-11-21T04:40:12.932Z,96.54
2017-11-21T04:42:40.331Z,96.44
2017-11-21T04:45:07.751Z,96.74
2017-11-21T04:47:35.160Z,97.09
2017-11-21T04:50:02.556Z,97.02
2017-11-21T04:52:29.987Z,96.76
2017-11-21T04:54:57.382Z,96.83
2017-11-21T04:57:24.803Z,96.84
2017-11-21T04:59:52.207Z,96.75
2017-11-21T05:02:19.599Z,96.54
2017-11-21T05:04:47.007Z,96.57
2017-11-21T05:07:14.428Z,96.68
2017-11-21T05:09:41.832Z,96.33
2017-11-21T05:12:09.715Z,96.11
2017-11-21T05:14:37.135Z,96.11
2017-11-21T05:17:04.537Z,96.31
2017-11-21T05:19:33.950Z,96.67
2017-11-21T05:22:01.363Z,97.19
2017-11-21T05:24:28.767Z,96.95
2017-11-21T05:26:56.196Z,96.64
2017-11-21T05:29:23.600Z,96.19
2017-11-21T05:31:51.023Z,96.44
2017-11-21T05:34:18.420Z,96.33
2017-11-21T05:36:45.843Z,96.10
2017-11-21T05:39:13.243Z,95.82
2017-11-21T05:41:40.651Z,95.55
2017-11-21T05:44:08.050Z,95.74
2017-11-21T05:46:35.448Z,95.62
2017-11-21T05:49:02.847Z,95.99
2017-11-21T05:51:34.796Z,95.87
2017-11-21T05:54:02.194Z,95.66
2017-11-21T05:56:29.606Z,95.72
2017-11-21T05:58:57.035Z,95.79
2017-11-21T06:01:24.432Z,95.71
2017-11-21T06:03:51.827Z,95.81
2017-11-21T06:06:19.239Z,95.91
2017-11-21T06:08:46.653Z,95.87
2017-11-21T06:11:14.036Z,95.88
2017-11-21T06:13:41.468Z,95.72
2017-11-21T06:16:08.879Z,95.66
2017-11-21T06:18:36.267Z,95.59
2017-11-21T06:21:03.710Z,95.33
2017-11-21T06:23:31.690Z,95.33
2017-11-21T06:26:00.094Z,95.21
2017-11-21T06:28:27.515Z,95.32
2017-11-21T06:30:54.954Z,95.30
2017-11-21T06:33:22.351Z,95.24
2017-11-21T06:35:49.782Z,95.23
2017-11-21T06:38:17.195Z,95.15
2017-11-21T06:40:44.593Z,95.18
2017-11-21T06:43:12.038Z,95.14
2017-11-21T06:45:39.432Z,95.01
2017-11-21T06:48:06.823Z,94.95
2017-11-21T06:50:34.280Z,94.91
2017-11-21T06:53:01.675Z,95.29
2017-11-21T06:55:29.080Z,95.02
2017-11-21T06:57:56.539Z,95.08
2017-11-21T07:00:23.929Z,95.18
2017-11-21T07:02:51.342Z,95.19
2017-11-21T07:05:18.760Z,95.29
2017-11-21T07:07:46.186Z,95.84
2017-11-21T07:10:13.583Z,95.73
2017-11-21T07:12:40.995Z,95.92
2017-11-21T07:15:08.399Z,96.36
2017-11-21T07:17:35.791Z,96.02
2017-11-21T07:20:03.216Z,95.78
2017-11-21T07:22:30.616Z,95.93
2017-11-21T07:24:58.008Z,95.68
2017-11-21T07:27:25.435Z,95.85
2017-11-21T07:29:52.829Z,95.83
2017-11-21T07:32:20.224Z,95.76
2017-11-21T07:34:47.626Z,95.97
2017-11-21T07:37:15.040Z,96.00
2017-11-21T07:39:42.436Z,96.29
2017-11-21T07:42:09.868Z,96.36
2017-11-21T07:44:37.263Z,96.37
2017-11-21T07:47:04.681Z,96.22
2017-11-21T07:49:32.089Z,96.30
2017-11-21T07:51:59.481Z,96.35
2017-11-21T07:54:26.879Z,96.58
2017-11-21T07:56:54.291Z,96.52
2017-11-21T07:59:21.704Z,96.57
2017-11-21T08:01:49.103Z,96.91
2017-11-21T08:04:16.514Z,96.65
2017-11-21T08:06:43.915Z,96.56
2017-11-21T08:09:11.326Z,96.67
2017-11-21T08:11:38.735Z,96.47
2017-11-21T08:14:06.132Z,96.69
2017-11-21T08:16:33.535Z,96.80
2017-11-21T08:19:00.935Z,96.65
2017-11-21T08:21:28.353Z,96.89
2017-11-21T08:23:55.743Z,97.27
2017-11-21T08:26:23.148Z,97.20
2017-11-21T08:28:50.544Z,97.62
2017-11-21T08:31:17.950Z,97.85
2017-11-21T08:33:45.383Z,97.52
2017-11-21T08:36:12.778Z,97.51
2017-11-21T08:38:40.189Z,97.26
2017-11-21T08:41:07.595Z,97.11
2017-11-21T08:43:35.013Z,97.03
2017-11-21T08:46:02.415Z,97.05
2017-11-21T08:48:29.834Z,96.85
2017-11-21T08:50:57.311Z,96.64
2017-11-21T08:53:24.701Z,96.95
2017-11-21T08:55:52.118Z,97.29
2017-11-21T08:58:19.514Z,97.01
2017-11-21T09:00:46.975Z,97.19
2017-11-21T09:03:14.368Z,96.86
2017-11-21T09:05:41.792Z,96.68
2017-11-21T09:08:09.196Z,97.01
2017-11-21T09:10:36.599Z,97.03
2017-11-21T09:13:04.000Z,97.31
2017-11-21T09:15:31.416Z,97.06
2017-11-21T09:17:58.831Z,97.32
2017-11-21T09:20:26.224Z,97.18
2017-11-21T09:22:53.644Z,97.51
2017-11-21T09:25:21.051Z,97.67
2017-11-21T09:27:48.763Z,97.85
2017-11-21T09:30:16.182Z,97.91
2017-11-21T09:32:43.603Z,97.79
2017-11-21T09:35:11.012Z,98.32
2017-11-21T09:37:38.423Z,97.96
2017-11-21T09:40:05.840Z,98.08
2017-11-21T09:42:33.239Z,97.90
2017-11-21T09:45:00.645Z,97.87
2017-11-21T09:47:28.048Z,97.83
2017-11-21T09:49:55.459Z,97.56
2017-11-21T09:52:22.853Z,97.99
2017-11-21T09:54:50.302Z,97.73
2017-11-21T09:57:17.710Z,98.43
2017-11-21T09:59:45.119Z,98.17
2017-11-21T10:02:12.534Z,98.56
2017-11-21T10:04:39.920Z,98.49
2017-11-21T10:07:07.347Z,98.10
2017-11-21T10:09:34.768Z,97.72
2017-11-21T10:12:02.184Z,97.96
2017-11-21T10:14:29.607Z,98.03
2017-11-21T10:16:57.039Z,98.01
2017-11-21T10:19:24.420Z,99.00
2017-11-21T10:21:51.838Z,98.40
2017-11-21T10:24:19.275Z,98.05
2017-11-21T10:26:46.685Z,97.65
2017-11-21T10:29:14.095Z,98.07
2017-11-21T10:31:41.507Z,98.01
2017-11-21T10:34:08.943Z,97.65
2017-11-21T10:36:36.368Z,97.94
2017-11-21T10:39:03.821Z,97.66
2017-11-21T10:41:31.220Z,97.57
2017-11-21T10:43:58.656Z,97.68
2017-11-21T10:46:26.068Z,97.81
2017-11-21T10:48:53.486Z,97.58
2017-11-21T10:51:20.884Z,98.15
2017-11-21T10:53:48.311Z,98.14
2017-11-21T10:56:15.736Z,97.70
2017-11-21T10:58:43.183Z,97.67
2017-11-21T11:01:10.635Z,98.46
2017-11-21T11:03:38.056Z,98.26
2017-11-21T11:06:05.973Z,97.85
2017-11-21T11:08:33.419Z,98.10
2017-11-21T11:11:00.817Z,97.74
2017-11-21T11:13:28.280Z,97.71
2017-11-21T11:15:55.735Z,97.52
2017-11-21T11:18:23.139Z,97.44
2017-11-21T11:20:50.536Z,97.74
2017-11-21T11:23:17.963Z,97.36
2017-11-21T11:25:45.400Z,97.15
2017-11-21T11:28:12.792Z,96.67
2017-11-21T11:30:40.199Z,96.76
2017-11-21T11:33:07.596Z,97.01
2017-11-21T11:35:35.011Z,96.67
2017-11-21T11:38:02.453Z,96.74
2017-11-21T11:40:29.877Z,96.47
2017-11-21T11:42:57.295Z,96.61
2017-11-21T11:45:24.727Z,97.00
2017-11-21T11:47:52.176Z,96.56
2017-11-21T11:50:19.597Z,96.59
2017-11-21T11:52:47.033Z,96.58
2017-11-21T11:55:14.451Z,96.20
2017-11-21T11:57:41.880Z,96.09
2017-11-21T12:00:09.302Z,95.83
2017-11-21T12:02:36.727Z,96.24
2017-11-21T12:05:04.147Z,96.12
2017-11-21T12:07:31.583Z,96.33
2017-11-21T12:09:59.020Z,95.79
2017-11-21T12:12:26.443Z,95.77
2017-11-21T12:14:53.896Z,95.35
2017-11-21T12:17:21.344Z,95.15
2017-11-21T12:19:48.752Z,95.70
2017-11-21T12:24:48.843Z,95.13
2017-11-21T12:27:16.300Z,94.90
2017-11-21T12:29:43.707Z,95.30
2017-11-21T12:32:11.109Z,95.22
2017-11-21T12:34:38.540Z,94.71
2017-11-21T12:37:05.951Z,94.67
2017-11-21T12:39:33.393Z,94.68
2017-11-21T12:42:00.790Z,94.90
2017-11-21T12:44:28.205Z,93.87
2017-11-21T12:46:55.626Z,94.61
2017-11-21T12:49:23.028Z,93.28
2017-11-21T12:51:50.426Z,93.65
2017-11-21T12:54:17.841Z,94.00
2017-11-21T12:56:45.298Z,93.49
2017-11-21T12:59:12.689Z,93.21
2017-11-21T13:01:40.083Z,93.02
2017-11-21T13:04:07.504Z,92.91
2017-11-21T13:06:35.259Z,92.71
2017-11-21T13:09:02.686Z,92.62
2017-11-21T13:11:30.121Z,92.69
2017-11-21T13:13:57.522Z,92.09
2017-11-21T13:16:24.916Z,92.56
2017-11-21T13:18:52.339Z,91.73
2017-11-21T13:21:19.735Z,91.84
2017-11-21T13:23:47.131Z,91.75
2017-11-21T13:26:14.540Z,92.04
2017-11-21T13:28:41.936Z,92.09
2017-11-21T13:31:09.336Z,91.62
2017-11-21T13:33:36.770Z,92.23
2017-11-21T13:36:04.171Z,91.93
2017-11-21T13:38:31.571Z,92.44
2017-11-21T13:40:58.976Z,92.38
2017-11-21T13:43:27.065Z,92.32
2017-11-21T13:45:54.461Z,91.86
2017-11-21T13:48:21.871Z,91.75
2017-11-21T13:50:49.271Z,91.97
2017-11-21T13:53:16.668Z,91.96
2017-11-21T13:55:48.892Z,91.99
2017-11-21T13:58:16.292Z,91.80
2017-11-21T14:00:43.714Z,91.77
2017-11-21T14:03:11.124Z,91.61
2017-11-21T14:05:38.520Z,91.93
2017-11-21T14:08:05.919Z,91.98
2017-11-21T14:10:35.942Z,92.40
2017-11-21T14:13:03.346Z,92.19
2017-11-21T14:15:30.741Z,92.48
2017-11-21T14:18:00.008Z,92.33
2017-11-21T14:20:27.435Z,92.27
2017-11-21T14:22:54.847Z,92.06
2017-11-21T14:25:22.270Z,92.54
2017-11-21T14:27:52.995Z,92.18
2017-11-21T14:30:20.392Z,92.19
2017-11-21T14:32:47.795Z,92.06
2017-11-21T14:35:15.198Z,91.99
2017-11-21T14:37:43.279Z,91.30
2017-11-21T14:40:10.977Z,91.46
2017-11-21T14:42:38.371Z,91.14
2017-11-21T14:45:05.769Z,90.40
2017-11-21T14:47:33.185Z,90.38
2017-11-21T14:50:00.584Z,90.20
2017-11-21T14:52:29.346Z,90.31
2017-11-21T14:54:56.755Z,89.53
2017-11-21T14:57:25.930Z,89.75
2017-11-21T14:59:54.851Z,89.43
2017-11-21T15:02:22.869Z,89.39
2017-11-21T15:04:50.268Z,89.18
2017-11-21T15:07:19.092Z,89.13
2017-11-21T15:09:47.140Z,89.14
2017-11-21T15:12:14.563Z,88.64
2017-11-21T15:14:43.140Z,88.40
2017-11-21T15:17:10.548Z,88.01
2017-11-21T15:19:38.003Z,87.96
2017-11-21T15:22:05.423Z,87.64
2017-11-21T15:24:32.839Z,87.18
2017-11-21T15:27:00.249Z,87.49
2017-11-21T15:29:27.653Z,87.10
2017-11-21T15:31:55.093Z,87.34
2017-11-21T15:34:22.505Z,86.91
2017-11-21T15:36:49.911Z,87.54
2017-11-21T15:39:17.317Z,87.37
2017-11-21T15:41:44.725Z,86.97
2017-11-21T15:44:12.151Z,86.49
2017-11-21T15:46:39.548Z,86.55
2017-11-21T15:49:07.547Z,86.57
2017-11-21T15:51:34.982Z,86.39
2017-11-21T15:54:02.452Z,86.23
2017-11-21T15:56:29.922Z,85.78
2017-11-21T15:58:57.330Z,86.46
2017-11-21T16:01:24.746Z,86.31
2017-11-21T16:03:52.140Z,86.17
2017-11-21T16:06:19.536Z,85.96
2017-11-21T16:08:46.943Z,86.30
2017-11-21T16:11:15.376Z,86.03
2017-11-21T16:13:42.779Z,86.10
2017-11-21T16:16:10.213Z,85.33
2017-11-21T16:18:37.615Z,85.73
2017-11-21T16:21:05.060Z,85.25
2017-11-21T16:23:32.483Z,85.50
2017-11-21T16:25:59.897Z,85.53
2017-11-21T16:28:27.291Z,85.07
2017-11-21T16:30:54.712Z,84.90
2017-11-21T16:33:22.112Z,85.27
2017-11-21T16:35:49.499Z,85.00
2017-11-21T16:38:17.375Z,84.70
2017-11-21T16:40:45.844Z,84.49
2017-11-21T16:43:13.244Z,84.55
2017-11-21T16:45:41.274Z,84.40
2017-11-21T16:48:08.685Z,84.47
2017-11-21T16:50:36.945Z,84.31
2017-11-21T16:53:04.369Z,84.15
2017-11-21T16:55:31.775Z,84.10
2017-11-21T16:57:59.170Z,83.86
2017-11-21T17:00:26.604Z,83.69
2017-11-21T17:02:53.999Z,83.84
2017-11-21T17:05:22.044Z,83.50
2017-11-21T17:07:49.472Z,83.09
2017-11-21T17:10:16.875Z,83.50
2017-11-21T17:12:44.315Z,83.64
2017-11-21T17:15:11.706Z,83.08
2017-11-21T17:17:39.119Z,83.62
2017-11-21T17:20:06.514Z,83.54
2017-11-21T17:22:33.906Z,83.34
2017-11-21T17:25:01.327Z,82.97
2017-11-21T17:27:28.742Z,82.79
2017-11-21T17:29:56.152Z,82.71
2017-11-21T17:32:23.584Z,83.17
2017-11-21T17:34:51.047Z,83.26
2017-11-21T17:37:18.472Z,83.00
2017-11-21T17:39:45.860Z,83.05
2017-11-21T17:42:13.278Z,82.97
2017-11-21T17:44:40.704Z,83.15
2017-11-21T17:47:08.118Z,82.73
2017-11-21T17:49:35.515Z,82.84
2017-11-21T17:52:02.926Z,83.07
2017-11-21T17:54:30.338Z,83.08
2017-11-21T17:57:01.046Z,82.55
2017-11-21T17:59:28.471Z,83.45
2017-11-21T18:01:56.953Z,83.00
2017-11-21T18:04:25.002Z,83.59
2017-11-21T18:06:52.467Z,83.40
2017-11-21T18:09:19.864Z,84.21
2017-11-21T18:11:47.260Z,85.03
2017-11-21T18:14:14.667Z,84.12
2017-11-21T18:16:42.099Z,84.15
2017-11-21T18:19:09.521Z,84.17
2017-11-21T18:21:36.933Z,84.32
2017-11-21T18:24:04.326Z,83.30
2017-11-21T18:26:31.739Z,83.50
2017-11-21T18:28:59.147Z,83.97
2017-11-21T18:31:26.550Z,83.94
2017-11-21T18:33:53.939Z,83.32
2017-11-21T18:36:21.363Z,84.57
2017-11-21T18:38:48.768Z,83.67
2017-11-21T18:41:16.168Z,82.65
2017-11-21T18:43:43.600Z,83.53
2017-11-21T18:46:11.010Z,83.76
2017-11-21T18:48:38.395Z,83.20
2017-11-21T18:51:05.795Z,83.02
2017-11-21T18:53:33.194Z,82.82
2017-11-21T18:56:00.602Z,82.28
2017-11-21T18:58:28.027Z,82.50
2017-11-21T19:00:55.428Z,82.54
2017-11-21T19:03:22.827Z,82.31
2017-11-21T19:05:50.247Z,82.69
2017-11-21T19:08:17.652Z,82.80
2017-11-21T19:10:45.092Z,82.19
2017-11-21T19:13:12.496Z,82.17
2017-11-21T19:15:39.906Z,82.39
2017-11-21T19:18:07.317Z,82.16
2017-11-21T19:20:34.716Z,82.25
2017-11-21T19:23:07.819Z,82.31
2017-11-21T19:25:36.211Z,82.35
2017-11-21T19:28:03.603Z,82.58
2017-11-21T19:30:31.552Z,82.50
2017-11-21T19:32:58.985Z,82.60
2017-11-21T19:35:28.255Z,82.56
2017-11-21T19:37:55.669Z,82.44
2017-11-21T19:40:23.084Z,82.58
2017-11-21T19:42:50.482Z,82.88
2017-11-21T19:45:17.940Z,82.64
2017-11-21T19:47:51.226Z,82.55
2017-11-21T19:50:21.683Z,82.83
2017-11-21T19:52:49.098Z,82.91
2017-11-21T19:55:16.522Z,82.71
2017-11-21T19:57:44.615Z,82.94
2017-11-21T20:00:12.011Z,82.49
2017-11-21T20:02:40.707Z,82.83
2017-11-21T20:05:08.793Z,82.39
2017-11-21T20:07:36.243Z,82.19
2017-11-21T20:10:03.679Z,82.15
2017-11-21T20:12:31.792Z,82.14
2017-11-21T20:15:00.027Z,81.91
2017-11-21T20:17:27.528Z,82.38
2017-11-21T20:19:56.463Z,81.52
2017-11-21T20:22:25.088Z,81.66
2017-11-21T20:24:52.503Z,81.72
2017-11-21T20:27:20.915Z,82.03
2017-11-21T20:29:49.420Z,81.41
2017-11-21T20:32:16.851Z,81.97
2017-11-21T20:34:44.894Z,81.64
2017-11-21T20:37:12.390Z,81.54
2017-11-21T20:39:39.857Z,81.50
2017-11-21T20:42:07.247Z,81.18
2017-11-21T20:44:34.683Z,81.37
2017-11-21T20:47:02.111Z,81.11
2017-11-21T20:49:29.510Z,80.94
2017-11-21T20:51:56.963Z,80.88
2017-11-21T20:54:24.378Z,81.19
2017-11-21T20:56:51.779Z,80.87
2017-11-21T20:59:19.170Z,81.00
2017-11-21T21:01:46.579Z,80.84
2017-11-21T21:04:13.976Z,80.13
2017-11-21T21:06:41.380Z,80.48
2017-11-21T21:09:08.792Z,79.71
2017-11-21T21:11:36.487Z,79.86
2017-11-21T21:14:03.879Z,80.06
2017-11-21T21:16:31.300Z,79.79
2017-11-21T21:18:58.691Z,78.29
2017-11-21T21:21:26.091Z,78.88
2017-11-21T21:23:53.496Z,78.92
2017-11-21T21:26:20.909Z,78.30
2017-11-21T21:28:48.288Z,78.55
2017-11-21T21:31:15.697Z,78.94
2017-11-21T21:33:43.084Z,78.38
2017-11-21T21:36:10.488Z,78.19
2017-11-21T21:38:37.907Z,79.00
2017-11-21T21:41:05.299Z,79.19
2017-11-21T21:43:32.695Z,78.48
2017-11-21T21:46:00.100Z,79.54
2017-11-21T21:48:27.491Z,79.27
2017-11-21T21:50:54.883Z,79.08
2017-11-21T21:53:22.304Z,79.00
2017-11-21T21:55:49.701Z,78.61
2017-11-21T21:58:17.083Z,79.21
2017-11-21T22:00:44.511Z,78.67
2017-11-21T22:03:11.900Z,79.37
2017-11-21T22:05:39.299Z,79.15
2017-11-21T22:08:06.720Z,79.34
2017-11-21T22:10:34.106Z,79.14
2017-11-21T22:13:01.498Z,78.71
2017-11-21T22:15:28.919Z,79.26
2017-11-21T22:17:56.311Z,79.06
2017-11-21T22:20:23.711Z,79.10
2017-11-21T22:22:51.120Z,78.87
2017-11-21T22:25:18.507Z,78.98
2017-11-21T22:27:45.897Z,79.42
2017-11-21T22:30:13.308Z,79.90
2017-11-21T22:32:40.710Z,79.94
2017-11-21T22:35:08.100Z,79.39
2017-11-21T22:37:35.520Z,80.22
2017-11-21T22:40:02.910Z,79.64
2017-11-21T22:42:30.306Z,80.15
2017-11-21T22:44:57.716Z,80.34
2017-11-21T22:47:25.112Z,80.64
2017-11-21T22:49:52.503Z,80.30
2017-11-21T22:52:19.903Z,79.53
2017-11-21T22:54:47.306Z,79.85
2017-11-21T22:57:14.695Z,80.05
2017-11-21T22:59:42.110Z,79.89
2017-11-21T23:02:09.822Z,79.45
2017-11-21T23:04:37.221Z,79.98
2017-11-21T23:07:04.606Z,79.59
2017-11-21T23:09:32.001Z,80.06
2017-11-21T23:11:59.393Z,80.63
2017-11-21T23:14:26.809Z,79.93
2017-11-21T23:16:54.191Z,80.56
2017-11-21T23:19:21.578Z,80.27
2017-11-21T23:21:48.988Z,80.89
2017-11-21T23:24:16.380Z,80.74
2017-11-21T23:26:43.767Z,81.00
2017-11-21T23:29:11.184Z,80.80
2017-11-21T23:31:38.571Z,80.64
2017-11-21T23:34:05.965Z,80.75
2017-11-21T23:36:33.366Z,81.42
2017-11-21T23:39:00.752Z,81.53
2017-11-21T23:41:28.143Z,81.00
2017-11-21T23:43:55.552Z,81.55
2017-11-21T23:46:22.947Z,81.04
2017-11-21T23:48:50.344Z,81.55
2017-11-21T23:51:17.747Z,82.05
2017-11-21T23:53:45.134Z,81.63
2017-11-21T23:56:12.531Z,81.81
2017-11-21T23:58:39.947Z,81.67
